AFL297 WADD-UUEE
Flight info
| Callsign | AFL297 |
|---|---|
| Flight time | N/A |
| Altitude | 36000 |
| Route | KOLTA G464 PNK N875 BOBOB M761 VPK M751 VKB A334 TAXEB/N0493F380 A334 HTY W14 PUT L515 OBMOG M770 KAKID M875 BUTOP/N0495F400 M875 JHANG A466 SITAX M875 AMDAR/K0920F400 M875 MILSO M161 DENUD T784 LARNO T291 URIDU L158 DIMGI DIMGI3E |
| Aircraft | A359/H-SDE2E3GHIJ3J4J5LM1ORWXY/LB1D1 |
Departure
| Time | 2026-04-29 22:05 |
|---|---|
| Airport | Denpasar I Gusti Ngurah Rai International Airport (WADD) |
Arrival
| Time | N/A |
|---|---|
| Airport | Sheremetyevo International Airport (UUEE) |
| Time | Latitude | Longitude | Altitude | Speed | Heading |
|---|---|---|---|---|---|
| 2026-04-29 21:56 | -8.74612 | 115.16936 | 35 ft | 4 kts | 358° |
| 2026-04-29 21:56 | -8.74636 | 115.16936 | 38 ft | 4 kts | 12° |
| 2026-04-29 21:56 | -8.74658 | 115.16929 | 35 ft | 4 kts | 43° |
| 2026-04-29 21:57 | -8.74670 | 115.16911 | 38 ft | 4 kts | 78° |
| 2026-04-29 21:57 | -8.74673 | 115.16885 | 38 ft | 4 kts | 90° |
| 2026-04-29 21:57 | -8.74673 | 115.16871 | 38 ft | 1 kts | 88° |
| 2026-04-29 21:59 | -8.74672 | 115.16916 | 37 ft | 11 kts | 89° |
| 2026-04-29 21:59 | -8.74670 | 115.16994 | 38 ft | 11 kts | 88° |
| 2026-04-29 22:00 | -8.74665 | 115.17074 | 38 ft | 12 kts | 87° |
| 2026-04-29 22:00 | -8.74661 | 115.17157 | 38 ft | 12 kts | 87° |
| 2026-04-29 22:00 | -8.74658 | 115.17243 | 38 ft | 12 kts | 87° |
| 2026-04-29 22:00 | -8.74654 | 115.17332 | 38 ft | 13 kts | 88° |
| 2026-04-29 22:01 | -8.74650 | 115.17424 | 38 ft | 13 kts | 88° |
| 2026-04-29 22:02 | -8.74634 | 115.17809 | 39 ft | 15 kts | 88° |
| 2026-04-29 22:02 | -8.74630 | 115.17915 | 39 ft | 15 kts | 88° |
| 2026-04-29 22:02 | -8.74626 | 115.18024 | 38 ft | 16 kts | 89° |
| 2026-04-29 22:02 | -8.74679 | 115.18094 | 38 ft | 10 kts | 171° |
| 2026-04-29 22:03 | -8.74758 | 115.18095 | 35 ft | 12 kts | 193° |
| 2026-04-29 22:03 | -8.74788 | 115.18059 | 35 ft | 3 kts | 262° |
| 2026-04-29 22:03 | -8.74788 | 115.18055 | 35 ft | 0 kts | 267° |
| 2026-04-29 22:04 | -8.74791 | 115.17994 | 36 ft | 34 kts | 267° |
| 2026-04-29 22:04 | -8.74810 | 115.17514 | 35 ft | 100 kts | 267° |
| 2026-04-29 22:04 | -8.74849 | 115.16608 | 35 ft | 156 kts | 267° |
| 2026-04-29 22:05 | -8.74887 | 115.15442 | 519 ft | 162 kts | 268° |
| 2026-04-29 22:05 | -8.74885 | 115.14266 | 983 ft | 175 kts | 271° |
| 2026-04-29 22:05 | -8.74804 | 115.11447 | 1616 ft | 228 kts | 269° |
| 2026-04-29 22:06 | -8.74782 | 115.09797 | 1946 ft | 243 kts | 269° |
| 2026-04-29 22:06 | -8.74767 | 115.08014 | 2167 ft | 264 kts | 270° |
| 2026-04-29 22:06 | -8.74757 | 115.06117 | 2585 ft | 274 kts | 269° |
| 2026-04-29 22:06 | -8.74746 | 115.04180 | 3138 ft | 278 kts | 269° |
| 2026-04-29 22:07 | -8.74737 | 115.02217 | 3705 ft | 280 kts | 270° |
| 2026-04-29 22:07 | -8.74729 | 115.00238 | 4288 ft | 283 kts | 269° |
| 2026-04-29 22:07 | -8.74720 | 114.98240 | 4868 ft | 285 kts | 270° |
| 2026-04-29 22:07 | -8.74712 | 114.96233 | 5440 ft | 287 kts | 270° |
| 2026-04-29 22:08 | -8.74705 | 114.94209 | 6026 ft | 289 kts | 270° |
| 2026-04-29 22:08 | -8.74696 | 114.92172 | 6584 ft | 291 kts | 270° |
| 2026-04-29 22:08 | -8.74754 | 114.90112 | 7129 ft | 294 kts | 265° |
| 2026-04-29 22:08 | -8.74917 | 114.88045 | 7702 ft | 297 kts | 265° |
| 2026-04-29 22:09 | -8.75084 | 114.85961 | 8300 ft | 298 kts | 265° |
| 2026-04-29 22:09 | -8.75242 | 114.83860 | 8899 ft | 301 kts | 265° |
| 2026-04-29 22:09 | -8.75392 | 114.81774 | 9499 ft | 303 kts | 265° |
| 2026-04-29 22:09 | -8.75543 | 114.79613 | 10067 ft | 306 kts | 266° |
| 2026-04-29 22:10 | -8.75648 | 114.77426 | 10376 ft | 319 kts | 271° |
| 2026-04-29 22:10 | -8.75288 | 114.75201 | 10566 ft | 333 kts | 290° |
| 2026-04-29 22:10 | -8.74120 | 114.73101 | 10766 ft | 345 kts | 312° |
| 2026-04-29 22:10 | -8.72275 | 114.71562 | 10964 ft | 355 kts | 333° |
| 2026-04-29 22:11 | -8.69917 | 114.70771 | 11150 ft | 363 kts | 354° |
| 2026-04-29 22:11 | -8.67355 | 114.70584 | 11358 ft | 374 kts | 354° |
| 2026-04-29 22:11 | -8.64765 | 114.70090 | 11556 ft | 385 kts | 348° |
| 2026-04-29 22:11 | -8.62138 | 114.69453 | 11819 ft | 392 kts | 347° |
| 2026-04-29 22:12 | -8.59470 | 114.68791 | 12191 ft | 396 kts | 347° |
| 2026-04-29 22:12 | -8.56786 | 114.68124 | 12582 ft | 398 kts | 347° |
| 2026-04-29 22:12 | -8.54083 | 114.67452 | 12976 ft | 401 kts | 347° |
| 2026-04-29 22:12 | -8.51362 | 114.66777 | 13366 ft | 404 kts | 347° |
| 2026-04-29 22:13 | -8.48626 | 114.66097 | 13754 ft | 406 kts | 347° |
| 2026-04-29 22:13 | -8.45878 | 114.65416 | 14095 ft | 408 kts | 347° |
| 2026-04-29 22:13 | -8.43109 | 114.64729 | 14437 ft | 410 kts | 347° |
| 2026-04-29 22:13 | -8.40329 | 114.64040 | 14796 ft | 412 kts | 347° |
| 2026-04-29 22:14 | -8.37533 | 114.63347 | 15132 ft | 414 kts | 347° |
| 2026-04-29 22:14 | -8.34766 | 114.62661 | 15463 ft | 416 kts | 347° |
| 2026-04-29 22:14 | -8.31952 | 114.61963 | 15800 ft | 418 kts | 347° |
| 2026-04-29 22:14 | -8.29124 | 114.61263 | 16127 ft | 420 kts | 347° |
| 2026-04-29 22:15 | -8.26269 | 114.60556 | 16454 ft | 422 kts | 347° |
| 2026-04-29 22:15 | -8.23409 | 114.59848 | 16762 ft | 424 kts | 347° |
| 2026-04-29 22:15 | -8.20542 | 114.59137 | 17096 ft | 426 kts | 347° |
| 2026-04-29 22:15 | -8.17650 | 114.58422 | 17421 ft | 428 kts | 347° |
| 2026-04-29 22:16 | -8.14752 | 114.57704 | 17750 ft | 430 kts | 347° |
| 2026-04-29 22:16 | -8.11836 | 114.56981 | 18061 ft | 432 kts | 347° |
| 2026-04-29 22:16 | -8.08907 | 114.56256 | 18342 ft | 434 kts | 347° |
| 2026-04-29 22:16 | -8.05973 | 114.55530 | 18600 ft | 436 kts | 347° |
| 2026-04-29 22:17 | -8.03015 | 114.54798 | 18853 ft | 438 kts | 347° |
| 2026-04-29 22:17 | -8.00044 | 114.54063 | 19107 ft | 440 kts | 347° |
| 2026-04-29 22:17 | -7.97063 | 114.53326 | 19358 ft | 442 kts | 347° |
| 2026-04-29 22:17 | -7.94106 | 114.52594 | 19612 ft | 444 kts | 347° |
| 2026-04-29 22:18 | -7.91056 | 114.51840 | 19862 ft | 446 kts | 347° |
| 2026-04-29 22:18 | -7.88031 | 114.51092 | 20120 ft | 448 kts | 347° |
| 2026-04-29 22:18 | -7.85031 | 114.50350 | 20363 ft | 450 kts | 347° |
| 2026-04-29 22:18 | -7.81983 | 114.49597 | 20638 ft | 452 kts | 347° |
| 2026-04-29 22:19 | -7.78914 | 114.48839 | 20884 ft | 454 kts | 347° |
| 2026-04-29 22:19 | -7.75841 | 114.48079 | 21140 ft | 456 kts | 347° |
| 2026-04-29 22:19 | -7.72760 | 114.47318 | 21389 ft | 458 kts | 347° |
| 2026-04-29 22:19 | -7.69654 | 114.46550 | 21655 ft | 460 kts | 347° |
| 2026-04-29 22:20 | -7.66534 | 114.45780 | 21914 ft | 462 kts | 347° |
| 2026-04-29 22:20 | -7.63409 | 114.45008 | 22181 ft | 464 kts | 347° |
| 2026-04-29 22:20 | -7.60268 | 114.44233 | 22453 ft | 466 kts | 347° |
| 2026-04-29 22:20 | -7.57115 | 114.43454 | 22727 ft | 468 kts | 347° |
| 2026-04-29 22:21 | -7.53942 | 114.42671 | 23002 ft | 470 kts | 347° |
| 2026-04-29 22:21 | -7.50761 | 114.41886 | 23273 ft | 472 kts | 347° |
| 2026-04-29 22:21 | -7.47578 | 114.41062 | 23535 ft | 474 kts | 344° |
| 2026-04-29 22:21 | -7.44491 | 114.39882 | 23763 ft | 477 kts | 335° |
| 2026-04-29 22:22 | -7.41566 | 114.38293 | 24007 ft | 478 kts | 331° |
| 2026-04-29 22:22 | -7.38681 | 114.36601 | 24242 ft | 480 kts | 330° |
| 2026-04-29 22:22 | -7.35797 | 114.34901 | 24484 ft | 482 kts | 330° |
| 2026-04-29 22:22 | -7.32893 | 114.33194 | 24731 ft | 483 kts | 330° |
| 2026-04-29 22:23 | -7.25001 | 114.28574 | 25441 ft | 488 kts | 330° |
| 2026-04-29 22:23 | -7.22234 | 114.26957 | 25687 ft | 490 kts | 331° |
| 2026-04-29 22:24 | -7.19287 | 114.25236 | 25978 ft | 491 kts | 330° |
| 2026-04-29 22:24 | -7.16356 | 114.23523 | 26265 ft | 493 kts | 330° |
| 2026-04-29 22:24 | -7.13380 | 114.21785 | 26559 ft | 495 kts | 330° |
| 2026-04-29 22:24 | -7.10398 | 114.20044 | 26857 ft | 497 kts | 331° |
| 2026-04-29 22:25 | -7.07398 | 114.18293 | 27161 ft | 499 kts | 330° |
| 2026-04-29 22:25 | -7.04389 | 114.16537 | 27468 ft | 501 kts | 330° |
| 2026-04-29 22:25 | -7.01370 | 114.14775 | 27773 ft | 503 kts | 330° |
| 2026-04-29 22:25 | -6.98335 | 114.13004 | 28061 ft | 505 kts | 330° |
| 2026-04-29 22:26 | -6.95296 | 114.11231 | 28364 ft | 506 kts | 330° |
| 2026-04-29 22:26 | -6.92240 | 114.09450 | 28635 ft | 509 kts | 330° |
| 2026-04-29 22:26 | -6.89169 | 114.07659 | 28892 ft | 511 kts | 330° |
| 2026-04-29 22:26 | -6.86091 | 114.05863 | 29145 ft | 512 kts | 330° |
| 2026-04-29 22:27 | -6.82998 | 114.04059 | 29408 ft | 514 kts | 330° |
| 2026-04-29 22:27 | -6.79903 | 114.02254 | 29702 ft | 515 kts | 330° |
| 2026-04-29 22:27 | -6.76810 | 114.00452 | 30063 ft | 513 kts | 330° |
| 2026-04-29 22:27 | -6.73724 | 113.98655 | 30377 ft | 512 kts | 330° |
| 2026-04-29 22:28 | -6.70638 | 113.96857 | 30646 ft | 512 kts | 330° |
| 2026-04-29 22:28 | -6.67554 | 113.95060 | 30914 ft | 512 kts | 330° |
| 2026-04-29 22:28 | -6.64479 | 113.93269 | 31221 ft | 511 kts | 330° |
| 2026-04-29 22:28 | -6.61405 | 113.91479 | 31505 ft | 510 kts | 330° |
| 2026-04-29 22:29 | -6.58336 | 113.89691 | 31794 ft | 509 kts | 331° |
| 2026-04-29 22:29 | -6.55261 | 113.87901 | 32076 ft | 509 kts | 331° |
| 2026-04-29 22:29 | -6.52242 | 113.86144 | 32334 ft | 508 kts | 331° |
| 2026-04-29 22:29 | -6.49181 | 113.84363 | 32616 ft | 508 kts | 331° |
| 2026-04-29 22:30 | -6.46127 | 113.82586 | 32885 ft | 507 kts | 331° |
| 2026-04-29 22:30 | -6.43060 | 113.80815 | 33160 ft | 506 kts | 331° |
| 2026-04-29 22:30 | -6.40006 | 113.79058 | 33435 ft | 505 kts | 331° |
| 2026-04-29 22:30 | -6.36957 | 113.77306 | 33688 ft | 504 kts | 331° |
| 2026-04-29 22:31 | -6.33914 | 113.75558 | 33928 ft | 504 kts | 331° |
| 2026-04-29 22:31 | -6.30867 | 113.73809 | 34113 ft | 504 kts | 331° |
| 2026-04-29 22:31 | -6.27819 | 113.72058 | 34306 ft | 504 kts | 331° |
| 2026-04-29 22:31 | -6.24781 | 113.70313 | 34526 ft | 503 kts | 331° |
| 2026-04-29 22:32 | -6.21741 | 113.68566 | 34718 ft | 503 kts | 331° |
| 2026-04-29 22:32 | -6.18703 | 113.66821 | 34890 ft | 503 kts | 331° |
| 2026-04-29 22:32 | -6.15669 | 113.65078 | 35083 ft | 502 kts | 331° |
| 2026-04-29 22:32 | -6.12636 | 113.63336 | 35260 ft | 502 kts | 331° |
| 2026-04-29 22:33 | -6.09605 | 113.61595 | 35443 ft | 502 kts | 331° |
| 2026-04-29 22:33 | -6.06570 | 113.59852 | 35611 ft | 502 kts | 331° |
| 2026-04-29 22:33 | -6.03536 | 113.58110 | 35784 ft | 502 kts | 331° |
| 2026-04-29 22:34 | -5.97487 | 113.54638 | 35884 ft | 507 kts | 331° |
| 2026-04-29 22:34 | -5.91338 | 113.51109 | 35885 ft | 508 kts | 331° |
| 2026-04-29 22:35 | -5.85206 | 113.47590 | 35885 ft | 508 kts | 331° |
| 2026-04-29 22:35 | -5.79069 | 113.44070 | 35883 ft | 508 kts | 331° |
| 2026-04-29 22:36 | -5.72938 | 113.40554 | 35885 ft | 508 kts | 331° |
| 2026-04-29 22:36 | -5.66803 | 113.37036 | 35885 ft | 508 kts | 331° |
| 2026-04-29 22:37 | -5.60662 | 113.33517 | 35887 ft | 508 kts | 331° |
| 2026-04-29 22:37 | -5.54532 | 113.30004 | 35888 ft | 508 kts | 331° |
| 2026-04-29 22:38 | -5.48431 | 113.26509 | 35884 ft | 508 kts | 331° |
| 2026-04-29 22:38 | -5.42296 | 113.22994 | 35884 ft | 508 kts | 331° |
| 2026-04-29 22:39 | -5.36154 | 113.19477 | 35884 ft | 508 kts | 331° |
| 2026-04-29 22:39 | -5.30012 | 113.15961 | 35884 ft | 508 kts | 331° |
| 2026-04-29 22:40 | -5.23871 | 113.12446 | 35885 ft | 508 kts | 331° |
| 2026-04-29 22:40 | -5.17727 | 113.08930 | 35883 ft | 508 kts | 331° |
| 2026-04-29 22:41 | -5.11581 | 113.05414 | 35885 ft | 508 kts | 331° |
| 2026-04-29 22:41 | -5.05456 | 113.01911 | 35886 ft | 508 kts | 331° |
| 2026-04-29 22:42 | -4.99306 | 112.98394 | 35884 ft | 508 kts | 331° |
| 2026-04-29 22:42 | -4.93161 | 112.94881 | 35883 ft | 508 kts | 331° |
| 2026-04-29 22:43 | -4.87010 | 112.91365 | 35885 ft | 508 kts | 331° |
| 2026-04-29 22:43 | -4.80863 | 112.87852 | 35887 ft | 508 kts | 331° |
| 2026-04-29 22:44 | -4.74719 | 112.84342 | 35886 ft | 508 kts | 332° |
| 2026-04-29 22:44 | -4.68568 | 112.80828 | 35884 ft | 508 kts | 332° |
| 2026-04-29 22:45 | -4.62424 | 112.77319 | 35886 ft | 508 kts | 332° |
| 2026-04-29 22:45 | -4.56318 | 112.73833 | 35886 ft | 508 kts | 332° |
| 2026-04-29 22:46 | -4.50170 | 112.70323 | 35886 ft | 508 kts | 332° |
| 2026-04-29 22:46 | -4.44022 | 112.66814 | 35888 ft | 508 kts | 332° |
| 2026-04-29 22:47 | -4.37876 | 112.63306 | 35888 ft | 508 kts | 332° |
| 2026-04-29 22:47 | -4.31722 | 112.59795 | 35887 ft | 508 kts | 332° |
| 2026-04-29 22:48 | -4.25573 | 112.56287 | 35886 ft | 509 kts | 332° |
| 2026-04-29 22:48 | -4.19468 | 112.52805 | 35888 ft | 508 kts | 332° |
| 2026-04-29 22:49 | -4.13313 | 112.49295 | 35886 ft | 509 kts | 332° |
| 2026-04-29 22:49 | -4.07158 | 112.45786 | 35890 ft | 508 kts | 332° |
| 2026-04-29 22:50 | -4.01008 | 112.42280 | 35889 ft | 508 kts | 332° |
| 2026-04-29 22:50 | -3.94855 | 112.38774 | 35890 ft | 508 kts | 332° |
| 2026-04-29 22:51 | -3.88708 | 112.35271 | 35890 ft | 508 kts | 332° |
| 2026-04-29 22:51 | -3.79475 | 112.30010 | 35891 ft | 508 kts | 332° |
| 2026-04-29 22:52 | -3.73374 | 112.26535 | 35891 ft | 508 kts | 332° |
| 2026-04-29 22:52 | -3.67228 | 112.23035 | 35892 ft | 508 kts | 332° |
| 2026-04-29 22:53 | -3.61090 | 112.19540 | 35896 ft | 508 kts | 332° |
| 2026-04-29 22:53 | -3.54940 | 112.16038 | 35894 ft | 508 kts | 332° |
| 2026-04-29 22:54 | -3.49841 | 112.13136 | 35892 ft | 508 kts | 332° |
| 2026-04-29 22:54 | -3.43682 | 112.09630 | 35894 ft | 508 kts | 332° |
| 2026-04-29 22:55 | -3.37540 | 112.06134 | 35897 ft | 508 kts | 332° |
| 2026-04-29 22:55 | -3.31390 | 112.02635 | 35898 ft | 508 kts | 332° |
| 2026-04-29 22:56 | -3.25244 | 111.99139 | 35897 ft | 508 kts | 332° |
| 2026-04-29 22:56 | -3.19089 | 111.95637 | 35897 ft | 509 kts | 332° |
| 2026-04-29 22:57 | -3.11934 | 111.91568 | 35897 ft | 509 kts | 332° |
| 2026-04-29 22:57 | -3.06809 | 111.88654 | 35898 ft | 509 kts | 332° |
| 2026-04-29 22:58 | -3.00649 | 111.85151 | 35898 ft | 509 kts | 332° |
| 2026-04-29 22:58 | -2.94475 | 111.81641 | 35897 ft | 510 kts | 332° |
| 2026-04-29 22:59 | -2.88300 | 111.78131 | 35900 ft | 510 kts | 332° |
| 2026-04-29 22:59 | -2.82124 | 111.74621 | 35896 ft | 510 kts | 332° |
| 2026-04-29 23:00 | -2.75943 | 111.71108 | 35896 ft | 511 kts | 332° |
| 2026-04-29 23:00 | -2.70063 | 111.67122 | 35901 ft | 512 kts | 321° |
| 2026-04-29 23:01 | -2.64704 | 111.62471 | 35898 ft | 513 kts | 319° |
| 2026-04-29 23:01 | -2.59399 | 111.57702 | 35896 ft | 513 kts | 319° |
| 2026-04-29 23:02 | -2.54088 | 111.52925 | 35899 ft | 513 kts | 319° |
| 2026-04-29 23:02 | -2.48768 | 111.48161 | 35901 ft | 513 kts | 319° |
| 2026-04-29 23:03 | -2.43436 | 111.43400 | 35897 ft | 513 kts | 319° |
| 2026-04-29 23:03 | -2.38107 | 111.38643 | 35896 ft | 513 kts | 319° |
| 2026-04-29 23:04 | -2.32809 | 111.33913 | 35897 ft | 513 kts | 319° |
| 2026-04-29 23:04 | -2.27483 | 111.29157 | 35899 ft | 513 kts | 319° |
| 2026-04-29 23:05 | -2.22163 | 111.24408 | 35900 ft | 513 kts | 319° |
| 2026-04-29 23:05 | -2.16840 | 111.19658 | 35899 ft | 512 kts | 319° |
| 2026-04-29 23:06 | -2.11520 | 111.14909 | 35897 ft | 512 kts | 319° |
| 2026-04-29 23:06 | -2.06199 | 111.10160 | 35901 ft | 512 kts | 319° |
| 2026-04-29 23:07 | -2.00889 | 111.05421 | 35903 ft | 512 kts | 319° |
| 2026-04-29 23:07 | -1.95596 | 111.00671 | 35905 ft | 512 kts | 319° |
| 2026-04-29 23:08 | -1.90333 | 110.95948 | 35906 ft | 511 kts | 319° |
| 2026-04-29 23:08 | -1.85043 | 110.91207 | 35907 ft | 511 kts | 319° |
| 2026-04-29 23:09 | -1.79732 | 110.86450 | 35903 ft | 512 kts | 319° |
| 2026-04-29 23:09 | -1.74429 | 110.81701 | 35904 ft | 512 kts | 319° |
| 2026-04-29 23:10 | -1.69133 | 110.76958 | 35906 ft | 511 kts | 319° |
| 2026-04-29 23:10 | -1.63828 | 110.72207 | 35906 ft | 511 kts | 319° |
| 2026-04-29 23:11 | -1.58532 | 110.67466 | 35904 ft | 511 kts | 319° |
| 2026-04-29 23:11 | -1.53228 | 110.62717 | 35901 ft | 511 kts | 319° |
| 2026-04-29 23:12 | -1.47928 | 110.57971 | 35900 ft | 511 kts | 319° |
| 2026-04-29 23:12 | -1.42670 | 110.53263 | 35902 ft | 511 kts | 319° |
| 2026-04-29 23:13 | -1.37374 | 110.48522 | 35898 ft | 511 kts | 319° |
| 2026-04-29 23:13 | -1.32071 | 110.43776 | 35903 ft | 511 kts | 319° |
| 2026-04-29 23:14 | -1.26772 | 110.39059 | 35901 ft | 511 kts | 319° |
| 2026-04-29 23:14 | -1.21359 | 110.34432 | 35902 ft | 511 kts | 320° |
| 2026-04-29 23:15 | -1.15940 | 110.29842 | 35901 ft | 511 kts | 320° |
| 2026-04-29 23:15 | -1.10565 | 110.25266 | 35900 ft | 511 kts | 320° |
| 2026-04-29 23:16 | -1.05163 | 110.20648 | 35900 ft | 511 kts | 320° |
| 2026-04-29 23:16 | -0.99769 | 110.16033 | 35901 ft | 511 kts | 320° |
| 2026-04-29 23:17 | -0.94370 | 110.11415 | 35903 ft | 511 kts | 320° |
| 2026-04-29 23:17 | -0.88968 | 110.06796 | 35898 ft | 511 kts | 320° |
| 2026-04-29 23:18 | -0.83572 | 110.02182 | 35900 ft | 511 kts | 320° |
| 2026-04-29 23:18 | -0.78164 | 109.97557 | 35896 ft | 511 kts | 320° |
| 2026-04-29 23:19 | -0.72756 | 109.92934 | 35895 ft | 511 kts | 320° |
| 2026-04-29 23:19 | -0.67380 | 109.88338 | 35895 ft | 511 kts | 320° |
| 2026-04-29 23:20 | -0.61971 | 109.83713 | 35898 ft | 511 kts | 320° |
| 2026-04-29 23:20 | -0.56564 | 109.79090 | 35898 ft | 511 kts | 320° |
| 2026-04-29 23:21 | -0.51159 | 109.74470 | 35898 ft | 512 kts | 320° |
| 2026-04-29 23:21 | -0.45756 | 109.69850 | 35895 ft | 511 kts | 320° |
| 2026-04-29 23:22 | -0.40342 | 109.65223 | 35895 ft | 512 kts | 320° |
| 2026-04-29 23:22 | -0.34928 | 109.60594 | 35892 ft | 512 kts | 320° |
| 2026-04-29 23:23 | -0.29518 | 109.55969 | 35890 ft | 512 kts | 320° |
| 2026-04-29 23:23 | -0.24102 | 109.51339 | 35888 ft | 512 kts | 320° |
| 2026-04-29 23:24 | -0.18720 | 109.46739 | 35882 ft | 512 kts | 320° |
| 2026-04-29 23:24 | -0.13303 | 109.42108 | 35882 ft | 513 kts | 320° |
| 2026-04-29 23:25 | -0.07882 | 109.37475 | 35884 ft | 513 kts | 320° |
| 2026-04-29 23:25 | -0.02561 | 109.32721 | 35887 ft | 513 kts | 317° |
| 2026-04-29 23:26 | 0.02635 | 109.27815 | 35890 ft | 514 kts | 317° |
| 2026-04-29 23:26 | 0.07846 | 109.22917 | 35892 ft | 514 kts | 317° |
| 2026-04-29 23:27 | 0.13076 | 109.18053 | 35896 ft | 514 kts | 317° |
| 2026-04-29 23:27 | 0.18315 | 109.13202 | 35897 ft | 514 kts | 317° |
| 2026-04-29 23:28 | 0.23561 | 109.08348 | 35899 ft | 514 kts | 317° |
| 2026-04-29 23:28 | 0.28803 | 109.03493 | 35897 ft | 514 kts | 317° |
| 2026-04-29 23:29 | 0.34045 | 108.98639 | 35900 ft | 514 kts | 317° |
| 2026-04-29 23:29 | 0.39284 | 108.93784 | 35900 ft | 514 kts | 318° |
| 2026-04-29 23:30 | 0.44534 | 108.88921 | 35899 ft | 514 kts | 318° |
| 2026-04-29 23:30 | 0.49748 | 108.84092 | 35899 ft | 514 kts | 318° |
| 2026-04-29 23:31 | 0.54996 | 108.79236 | 35900 ft | 514 kts | 318° |
| 2026-04-29 23:31 | 0.60242 | 108.74374 | 35897 ft | 514 kts | 318° |
| 2026-04-29 23:32 | 0.65488 | 108.69505 | 35900 ft | 514 kts | 318° |
| 2026-04-29 23:32 | 0.70732 | 108.64640 | 35896 ft | 514 kts | 318° |
| 2026-04-29 23:33 | 0.75977 | 108.59778 | 35900 ft | 514 kts | 318° |
| 2026-04-29 23:33 | 0.81228 | 108.54909 | 35901 ft | 515 kts | 318° |
| 2026-04-29 23:34 | 0.86448 | 108.50070 | 35900 ft | 515 kts | 318° |
| 2026-04-29 23:34 | 0.91699 | 108.45201 | 35899 ft | 515 kts | 318° |
| 2026-04-29 23:35 | 0.96954 | 108.40329 | 35899 ft | 515 kts | 318° |
| 2026-04-29 23:35 | 1.02197 | 108.35466 | 35895 ft | 515 kts | 318° |
| 2026-04-29 23:36 | 1.07448 | 108.30596 | 35897 ft | 514 kts | 318° |
| 2026-04-29 23:36 | 1.12694 | 108.25731 | 35899 ft | 514 kts | 318° |
| 2026-04-29 23:37 | 1.17936 | 108.20870 | 35902 ft | 514 kts | 318° |
| 2026-04-29 23:37 | 1.23179 | 108.16007 | 35900 ft | 514 kts | 318° |
| 2026-04-29 23:38 | 1.28428 | 108.11139 | 35905 ft | 514 kts | 318° |
| 2026-04-29 23:38 | 1.33640 | 108.06305 | 35905 ft | 514 kts | 318° |
| 2026-04-29 23:39 | 1.38889 | 108.01435 | 35901 ft | 515 kts | 318° |
| 2026-04-29 23:39 | 1.44140 | 107.96562 | 35897 ft | 515 kts | 318° |
| 2026-04-29 23:40 | 1.49373 | 107.91668 | 35902 ft | 515 kts | 317° |
| 2026-04-29 23:40 | 1.54598 | 107.86770 | 35901 ft | 515 kts | 317° |
| 2026-04-29 23:41 | 1.59828 | 107.81875 | 35900 ft | 515 kts | 318° |
| 2026-04-29 23:41 | 1.64181 | 107.77802 | 35899 ft | 515 kts | 318° |
| 2026-04-29 23:42 | 1.70275 | 107.72103 | 35900 ft | 515 kts | 318° |
| 2026-04-29 23:42 | 1.74660 | 107.68003 | 35900 ft | 515 kts | 317° |
| 2026-04-29 23:43 | 1.79892 | 107.63108 | 35898 ft | 515 kts | 317° |
| 2026-04-29 23:43 | 1.85093 | 107.58243 | 35898 ft | 515 kts | 317° |
| 2026-04-29 23:44 | 1.90329 | 107.53344 | 35902 ft | 515 kts | 317° |
| 2026-04-29 23:44 | 1.95561 | 107.48449 | 35900 ft | 515 kts | 317° |
| 2026-04-29 23:45 | 2.00791 | 107.43556 | 35902 ft | 515 kts | 317° |
| 2026-04-29 23:45 | 2.06033 | 107.38673 | 35900 ft | 515 kts | 318° |
| 2026-04-29 23:46 | 2.11273 | 107.33788 | 35901 ft | 514 kts | 318° |
| 2026-04-29 23:46 | 2.16468 | 107.28943 | 35899 ft | 514 kts | 318° |
| 2026-04-29 23:47 | 2.21701 | 107.24065 | 35904 ft | 514 kts | 318° |
| 2026-04-29 23:47 | 2.26929 | 107.19189 | 35896 ft | 514 kts | 318° |
| 2026-04-29 23:48 | 2.32155 | 107.14309 | 35896 ft | 514 kts | 317° |
| 2026-04-29 23:48 | 2.36557 | 107.08705 | 35896 ft | 515 kts | 298° |
| 2026-04-29 23:49 | 2.39105 | 107.02030 | 35900 ft | 515 kts | 286° |
| 2026-04-29 23:49 | 2.41022 | 106.95111 | 35899 ft | 516 kts | 285° |
| 2026-04-29 23:50 | 2.42868 | 106.88179 | 35900 ft | 516 kts | 285° |
| 2026-04-29 23:51 | 2.45683 | 106.77833 | 35900 ft | 516 kts | 285° |
| 2026-04-29 23:51 | 2.47591 | 106.70914 | 35896 ft | 516 kts | 285° |
| 2026-04-29 23:52 | 2.49497 | 106.64000 | 35896 ft | 516 kts | 285° |
| 2026-04-29 23:52 | 2.51402 | 106.57089 | 35896 ft | 516 kts | 285° |
| 2026-04-29 23:53 | 2.53312 | 106.50158 | 35895 ft | 516 kts | 285° |
| 2026-04-29 23:53 | 2.55205 | 106.43235 | 35894 ft | 515 kts | 285° |
| 2026-04-29 23:54 | 2.57100 | 106.36323 | 35896 ft | 515 kts | 285° |
| 2026-04-29 23:54 | 2.59012 | 106.29416 | 35893 ft | 515 kts | 285° |
| 2026-04-29 23:55 | 2.60913 | 106.22557 | 35897 ft | 515 kts | 285° |
| 2026-04-29 23:55 | 2.62825 | 106.15652 | 35896 ft | 515 kts | 285° |
| 2026-04-29 23:56 | 2.64732 | 106.08757 | 35897 ft | 514 kts | 285° |
| 2026-04-29 23:56 | 2.66644 | 106.01847 | 35896 ft | 514 kts | 285° |
| 2026-04-29 23:57 | 2.68550 | 105.94952 | 35897 ft | 514 kts | 285° |
| 2026-04-29 23:57 | 2.70456 | 105.88060 | 35894 ft | 514 kts | 285° |
| 2026-04-29 23:58 | 2.72360 | 105.81171 | 35894 ft | 514 kts | 285° |
| 2026-04-29 23:58 | 2.74251 | 105.74328 | 35896 ft | 514 kts | 285° |
| 2026-04-29 23:59 | 2.76158 | 105.67446 | 35897 ft | 513 kts | 285° |
| 2026-04-29 23:59 | 2.78059 | 105.60561 | 35897 ft | 513 kts | 285° |
| 2026-04-30 00:00 | 2.79959 | 105.53675 | 35898 ft | 513 kts | 285° |
| 2026-04-30 00:00 | 2.81859 | 105.46793 | 35897 ft | 513 kts | 285° |
| 2026-04-30 00:01 | 2.83747 | 105.39957 | 35898 ft | 513 kts | 285° |
| 2026-04-30 00:01 | 2.85644 | 105.33086 | 35897 ft | 512 kts | 285° |
| 2026-04-30 00:02 | 2.87544 | 105.26203 | 35896 ft | 512 kts | 285° |
| 2026-04-30 00:02 | 2.89445 | 105.19333 | 35897 ft | 512 kts | 285° |
| 2026-04-30 00:03 | 2.91350 | 105.12462 | 35896 ft | 512 kts | 285° |
| 2026-04-30 00:03 | 2.93242 | 105.05595 | 35895 ft | 512 kts | 285° |
| 2026-04-30 00:04 | 2.95139 | 104.98715 | 35895 ft | 512 kts | 285° |
| 2026-04-30 00:04 | 2.97022 | 104.91896 | 35897 ft | 512 kts | 285° |
| 2026-04-30 00:05 | 2.98918 | 104.85027 | 35898 ft | 512 kts | 285° |
| 2026-04-30 00:05 | 3.00815 | 104.78154 | 35898 ft | 512 kts | 285° |
| 2026-04-30 00:06 | 3.02709 | 104.71293 | 35898 ft | 512 kts | 285° |
| 2026-04-30 00:06 | 3.04591 | 104.64474 | 35897 ft | 512 kts | 285° |
| 2026-04-30 00:07 | 3.06483 | 104.57605 | 35900 ft | 512 kts | 285° |
| 2026-04-30 00:07 | 3.08373 | 104.50733 | 35896 ft | 512 kts | 285° |
| 2026-04-30 00:08 | 3.10264 | 104.43860 | 35901 ft | 512 kts | 285° |
| 2026-04-30 00:08 | 3.12157 | 104.36981 | 35899 ft | 512 kts | 285° |
| 2026-04-30 00:09 | 3.14045 | 104.30110 | 35900 ft | 512 kts | 285° |
| 2026-04-30 00:09 | 3.15916 | 104.23240 | 35901 ft | 512 kts | 285° |
| 2026-04-30 00:10 | 3.17772 | 104.16404 | 35899 ft | 512 kts | 285° |
| 2026-04-30 00:10 | 3.19686 | 104.09533 | 35900 ft | 512 kts | 286° |
| 2026-04-30 00:11 | 3.21642 | 104.02681 | 35902 ft | 512 kts | 286° |
| 2026-04-30 00:11 | 3.23593 | 103.95833 | 35901 ft | 512 kts | 286° |
| 2026-04-30 00:12 | 3.25542 | 103.88959 | 35900 ft | 512 kts | 286° |
| 2026-04-30 00:12 | 3.27484 | 103.82099 | 35897 ft | 512 kts | 286° |
| 2026-04-30 00:13 | 3.29426 | 103.75234 | 35895 ft | 513 kts | 286° |
| 2026-04-30 00:13 | 3.31354 | 103.68417 | 35895 ft | 513 kts | 286° |
| 2026-04-30 00:14 | 3.33296 | 103.61553 | 35894 ft | 512 kts | 286° |
| 2026-04-30 00:14 | 3.35237 | 103.54690 | 35896 ft | 512 kts | 286° |
| 2026-04-30 00:15 | 3.37639 | 103.48003 | 35897 ft | 511 kts | 298° |
| 2026-04-30 00:15 | 3.41876 | 103.42360 | 35897 ft | 507 kts | 319° |
| 2026-04-30 00:16 | 3.47730 | 103.38529 | 35900 ft | 503 kts | 338° |
| 2026-04-30 00:16 | 3.54218 | 103.35855 | 35890 ft | 503 kts | 340° |
| 2026-04-30 00:17 | 3.60747 | 103.33333 | 35889 ft | 503 kts | 340° |
| 2026-04-30 00:17 | 3.67236 | 103.30802 | 35886 ft | 503 kts | 340° |
| 2026-04-30 00:18 | 3.73749 | 103.28225 | 35882 ft | 503 kts | 339° |
| 2026-04-30 00:18 | 3.80263 | 103.25633 | 35884 ft | 503 kts | 339° |
| 2026-04-30 00:19 | 3.86764 | 103.23046 | 35882 ft | 502 kts | 339° |
| 2026-04-30 00:19 | 3.93264 | 103.20460 | 35889 ft | 502 kts | 339° |
| 2026-04-30 00:20 | 3.99714 | 103.17897 | 35893 ft | 501 kts | 339° |
| 2026-04-30 00:20 | 4.06195 | 103.15319 | 35896 ft | 501 kts | 339° |
| 2026-04-30 00:21 | 4.12675 | 103.12740 | 35905 ft | 501 kts | 339° |
| 2026-04-30 00:21 | 4.19146 | 103.10164 | 35909 ft | 500 kts | 339° |
| 2026-04-30 00:22 | 4.25624 | 103.07587 | 35909 ft | 500 kts | 339° |
| 2026-04-30 00:22 | 4.32090 | 103.05013 | 35914 ft | 500 kts | 339° |
| 2026-04-30 00:23 | 4.38564 | 103.02436 | 35912 ft | 500 kts | 339° |
| 2026-04-30 00:23 | 4.45042 | 102.99856 | 35919 ft | 500 kts | 339° |
| 2026-04-30 00:24 | 4.51518 | 102.97278 | 35921 ft | 500 kts | 339° |
| 2026-04-30 00:24 | 4.57946 | 102.94717 | 35921 ft | 501 kts | 339° |
| 2026-04-30 00:25 | 4.64424 | 102.92135 | 35922 ft | 501 kts | 339° |
| 2026-04-30 00:25 | 4.70910 | 102.89550 | 35922 ft | 501 kts | 339° |
| 2026-04-30 00:26 | 4.77388 | 102.86969 | 35918 ft | 501 kts | 339° |
| 2026-04-30 00:26 | 4.83875 | 102.84384 | 35918 ft | 501 kts | 339° |
| 2026-04-30 00:27 | 4.90367 | 102.81802 | 35920 ft | 501 kts | 339° |
| 2026-04-30 00:27 | 4.96852 | 102.79225 | 35917 ft | 501 kts | 339° |
| 2026-04-30 00:28 | 5.03292 | 102.76662 | 35916 ft | 501 kts | 339° |
| 2026-04-30 00:28 | 5.09777 | 102.74083 | 35915 ft | 501 kts | 339° |
| 2026-04-30 00:29 | 5.16256 | 102.71505 | 35911 ft | 500 kts | 339° |
| 2026-04-30 00:29 | 5.22732 | 102.68932 | 35911 ft | 500 kts | 339° |
| 2026-04-30 00:30 | 5.29188 | 102.66331 | 35914 ft | 500 kts | 339° |
| 2026-04-30 00:30 | 5.35636 | 102.63713 | 35913 ft | 499 kts | 339° |
| 2026-04-30 00:31 | 5.42097 | 102.61122 | 35912 ft | 499 kts | 339° |
| 2026-04-30 00:31 | 5.47464 | 102.58981 | 35912 ft | 499 kts | 339° |
| 2026-04-30 00:32 | 5.54956 | 102.55994 | 35909 ft | 498 kts | 339° |
| 2026-04-30 00:32 | 5.61404 | 102.53423 | 35906 ft | 498 kts | 339° |
| 2026-04-30 00:33 | 5.66756 | 102.51279 | 35901 ft | 498 kts | 339° |
| 2026-04-30 00:33 | 5.73193 | 102.48701 | 35901 ft | 497 kts | 339° |
| 2026-04-30 00:34 | 5.79622 | 102.46128 | 35897 ft | 497 kts | 339° |
| 2026-04-30 00:34 | 5.86044 | 102.43558 | 35895 ft | 497 kts | 339° |
| 2026-04-30 00:35 | 5.92465 | 102.40988 | 35889 ft | 496 kts | 339° |
| 2026-04-30 00:35 | 5.98876 | 102.38422 | 35888 ft | 496 kts | 339° |
| 2026-04-30 00:36 | 6.05274 | 102.35861 | 35886 ft | 495 kts | 339° |
| 2026-04-30 00:36 | 6.11467 | 102.32939 | 35886 ft | 495 kts | 328° |
| 2026-04-30 00:37 | 6.16602 | 102.28385 | 35883 ft | 495 kts | 309° |
| 2026-04-30 00:37 | 6.20004 | 102.22393 | 35887 ft | 496 kts | 294° |
| 2026-04-30 00:38 | 6.22594 | 102.15940 | 35885 ft | 498 kts | 292° |
| 2026-04-30 00:38 | 6.25098 | 102.09439 | 35883 ft | 498 kts | 292° |
| 2026-04-30 00:39 | 6.27644 | 102.02959 | 35878 ft | 498 kts | 292° |
| 2026-04-30 00:39 | 6.30223 | 101.96549 | 35876 ft | 498 kts | 293° |
| 2026-04-30 00:40 | 6.32829 | 101.90098 | 35881 ft | 498 kts | 293° |
| 2026-04-30 00:40 | 6.35428 | 101.83648 | 35882 ft | 498 kts | 293° |
| 2026-04-30 00:41 | 6.38025 | 101.77191 | 35883 ft | 498 kts | 293° |
| 2026-04-30 00:41 | 6.40619 | 101.70737 | 35882 ft | 498 kts | 293° |
| 2026-04-30 00:42 | 6.43211 | 101.64284 | 35885 ft | 497 kts | 293° |
| 2026-04-30 00:42 | 6.45802 | 101.57834 | 35880 ft | 498 kts | 292° |
| 2026-04-30 00:43 | 6.48377 | 101.51421 | 35880 ft | 498 kts | 292° |
| 2026-04-30 00:43 | 6.50967 | 101.44961 | 35884 ft | 498 kts | 292° |
| 2026-04-30 00:44 | 6.53560 | 101.38499 | 35886 ft | 498 kts | 292° |
| 2026-04-30 00:44 | 6.56155 | 101.32036 | 35885 ft | 498 kts | 292° |
| 2026-04-30 00:45 | 6.58744 | 101.25578 | 35889 ft | 498 kts | 292° |
| 2026-04-30 00:45 | 6.61333 | 101.19117 | 35886 ft | 498 kts | 292° |
| 2026-04-30 00:46 | 6.63917 | 101.12656 | 35885 ft | 497 kts | 292° |
| 2026-04-30 00:46 | 6.66484 | 101.06242 | 35886 ft | 497 kts | 292° |
| 2026-04-30 00:47 | 6.69066 | 100.99789 | 35893 ft | 497 kts | 292° |
| 2026-04-30 00:47 | 6.71646 | 100.93335 | 35892 ft | 497 kts | 292° |
| 2026-04-30 00:48 | 6.74224 | 100.86886 | 35896 ft | 497 kts | 292° |
| 2026-04-30 00:48 | 6.76797 | 100.80446 | 35893 ft | 496 kts | 292° |
| 2026-04-30 00:49 | 6.79380 | 100.73993 | 35896 ft | 496 kts | 292° |
| 2026-04-30 00:49 | 6.81952 | 100.67549 | 35892 ft | 496 kts | 292° |
| 2026-04-30 00:50 | 6.84506 | 100.61145 | 35883 ft | 496 kts | 292° |
| 2026-04-30 00:50 | 6.87077 | 100.54700 | 35884 ft | 496 kts | 292° |
| 2026-04-30 00:51 | 6.89645 | 100.48258 | 35886 ft | 496 kts | 292° |
| 2026-04-30 00:51 | 6.92222 | 100.41812 | 35882 ft | 496 kts | 293° |
| 2026-04-30 00:52 | 6.95681 | 100.35830 | 35882 ft | 494 kts | 306° |
| 2026-04-30 00:52 | 6.99752 | 100.30314 | 35883 ft | 495 kts | 308° |
| 2026-04-30 00:53 | 7.03945 | 100.24817 | 35881 ft | 495 kts | 308° |
| 2026-04-30 00:53 | 7.08130 | 100.19320 | 35881 ft | 494 kts | 308° |
| 2026-04-30 00:54 | 7.12297 | 100.13814 | 35880 ft | 494 kts | 307° |
| 2026-04-30 00:54 | 7.16458 | 100.08300 | 35879 ft | 494 kts | 308° |
| 2026-04-30 00:55 | 7.20615 | 100.02790 | 35878 ft | 494 kts | 307° |
| 2026-04-30 00:55 | 7.26866 | 99.94503 | 35880 ft | 495 kts | 307° |
| 2026-04-30 00:56 | 7.31016 | 99.89009 | 35879 ft | 496 kts | 307° |
| 2026-04-30 00:56 | 7.35215 | 99.83437 | 35881 ft | 496 kts | 307° |
| 2026-04-30 00:57 | 7.39364 | 99.77925 | 35883 ft | 497 kts | 307° |
| 2026-04-30 00:57 | 7.43539 | 99.72376 | 35881 ft | 497 kts | 307° |
| 2026-04-30 00:58 | 7.47718 | 99.66827 | 35881 ft | 497 kts | 307° |
| 2026-04-30 00:58 | 7.51539 | 99.61028 | 35888 ft | 497 kts | 297° |
| 2026-04-30 00:59 | 7.54550 | 99.54792 | 35884 ft | 498 kts | 295° |
| 2026-04-30 00:59 | 7.57457 | 99.48444 | 35881 ft | 498 kts | 295° |
| 2026-04-30 01:00 | 7.60350 | 99.42099 | 35879 ft | 498 kts | 295° |
| 2026-04-30 01:00 | 7.63258 | 99.35755 | 35879 ft | 498 kts | 295° |
| 2026-04-30 01:01 | 7.66175 | 99.29414 | 35872 ft | 498 kts | 295° |
| 2026-04-30 01:01 | 7.69087 | 99.23080 | 35877 ft | 498 kts | 295° |
| 2026-04-30 01:02 | 7.71986 | 99.16773 | 35877 ft | 498 kts | 295° |
| 2026-04-30 01:02 | 7.74895 | 99.10438 | 35876 ft | 498 kts | 295° |
| 2026-04-30 01:03 | 7.77810 | 99.04091 | 35879 ft | 498 kts | 295° |
| 2026-04-30 01:03 | 7.80721 | 98.97746 | 35880 ft | 498 kts | 295° |
| 2026-04-30 01:04 | 7.83632 | 98.91399 | 35879 ft | 499 kts | 295° |
| 2026-04-30 01:04 | 7.86544 | 98.85048 | 35879 ft | 499 kts | 295° |
| 2026-04-30 01:05 | 7.89460 | 98.78685 | 35879 ft | 499 kts | 295° |
| 2026-04-30 01:05 | 7.92366 | 98.72342 | 35881 ft | 498 kts | 295° |
| 2026-04-30 01:06 | 7.95253 | 98.66035 | 35881 ft | 498 kts | 295° |
| 2026-04-30 01:06 | 7.98143 | 98.59717 | 35882 ft | 498 kts | 295° |
| 2026-04-30 01:07 | 8.01043 | 98.53375 | 35884 ft | 497 kts | 295° |
| 2026-04-30 01:07 | 8.03939 | 98.47042 | 35884 ft | 497 kts | 295° |
| 2026-04-30 01:08 | 8.06833 | 98.40707 | 35883 ft | 497 kts | 295° |
| 2026-04-30 01:08 | 8.10016 | 98.34520 | 35884 ft | 496 kts | 304° |
| 2026-04-30 01:09 | 8.14701 | 98.29462 | 35882 ft | 494 kts | 323° |
| 2026-04-30 01:09 | 8.20624 | 98.25960 | 35885 ft | 494 kts | 333° |
| 2026-04-30 01:10 | 8.26793 | 98.22881 | 35885 ft | 494 kts | 334° |
| 2026-04-30 01:10 | 8.32976 | 98.19837 | 35886 ft | 494 kts | 334° |
| 2026-04-30 01:11 | 8.39100 | 98.16784 | 35889 ft | 494 kts | 333° |
| 2026-04-30 01:11 | 8.45256 | 98.13690 | 35893 ft | 494 kts | 333° |
| 2026-04-30 01:12 | 8.51411 | 98.10590 | 35895 ft | 494 kts | 333° |
| 2026-04-30 01:12 | 8.57571 | 98.07490 | 35894 ft | 494 kts | 333° |
| 2026-04-30 01:13 | 8.63743 | 98.04392 | 35894 ft | 494 kts | 333° |
| 2026-04-30 01:13 | 8.69897 | 98.01293 | 35894 ft | 494 kts | 333° |
| 2026-04-30 01:14 | 8.76016 | 97.98211 | 35898 ft | 494 kts | 333° |
| 2026-04-30 01:14 | 8.82169 | 97.95113 | 35900 ft | 494 kts | 333° |
| 2026-04-30 01:15 | 8.88323 | 97.92014 | 35897 ft | 494 kts | 333° |
| 2026-04-30 01:15 | 8.94476 | 97.88915 | 35897 ft | 493 kts | 333° |
| 2026-04-30 01:16 | 9.00622 | 97.85818 | 35899 ft | 493 kts | 333° |
| 2026-04-30 01:16 | 9.06720 | 97.82750 | 35897 ft | 493 kts | 333° |
| 2026-04-30 01:17 | 9.12861 | 97.79644 | 35898 ft | 493 kts | 333° |
| 2026-04-30 01:17 | 9.18988 | 97.76544 | 35898 ft | 493 kts | 333° |
| 2026-04-30 01:18 | 9.25123 | 97.73441 | 35899 ft | 493 kts | 333° |
| 2026-04-30 01:18 | 9.31261 | 97.70337 | 35897 ft | 493 kts | 332° |
| 2026-04-30 01:19 | 9.37400 | 97.67232 | 35898 ft | 493 kts | 332° |
| 2026-04-30 01:19 | 9.43495 | 97.64148 | 35900 ft | 492 kts | 332° |
| 2026-04-30 01:20 | 9.49633 | 97.61040 | 35901 ft | 492 kts | 332° |
| 2026-04-30 01:20 | 9.55769 | 97.57933 | 35899 ft | 492 kts | 332° |
| 2026-04-30 01:21 | 9.61901 | 97.54826 | 35900 ft | 492 kts | 332° |
| 2026-04-30 01:21 | 9.67997 | 97.51736 | 35899 ft | 492 kts | 332° |
| 2026-04-30 01:22 | 9.74116 | 97.48633 | 35901 ft | 492 kts | 332° |
| 2026-04-30 01:22 | 9.80241 | 97.45526 | 35902 ft | 492 kts | 332° |
| 2026-04-30 01:23 | 9.86370 | 97.42415 | 35904 ft | 492 kts | 332° |
| 2026-04-30 01:23 | 9.92451 | 97.39328 | 35907 ft | 492 kts | 332° |
| 2026-04-30 01:24 | 9.98566 | 97.36222 | 35905 ft | 491 kts | 332° |
| 2026-04-30 01:24 | 10.03655 | 97.33648 | 35906 ft | 491 kts | 332° |
| 2026-04-30 01:25 | 10.09787 | 97.30566 | 35905 ft | 491 kts | 332° |
| 2026-04-30 01:25 | 10.15912 | 97.27487 | 35905 ft | 491 kts | 332° |
| 2026-04-30 01:26 | 10.22036 | 97.24406 | 35907 ft | 491 kts | 332° |
| 2026-04-30 01:26 | 10.28163 | 97.21320 | 35906 ft | 491 kts | 332° |
| 2026-04-30 01:27 | 10.34282 | 97.18237 | 35911 ft | 491 kts | 332° |
| 2026-04-30 01:27 | 10.40408 | 97.15149 | 35907 ft | 491 kts | 332° |
| 2026-04-30 01:28 | 10.46494 | 97.12080 | 35907 ft | 491 kts | 332° |
| 2026-04-30 01:28 | 10.52610 | 97.08994 | 35908 ft | 491 kts | 332° |
| 2026-04-30 01:29 | 10.58732 | 97.05904 | 35911 ft | 491 kts | 332° |
| 2026-04-30 01:29 | 10.64856 | 97.02812 | 35911 ft | 491 kts | 332° |
| 2026-04-30 01:30 | 10.70968 | 96.99724 | 35911 ft | 491 kts | 331° |
| 2026-04-30 01:30 | 10.77091 | 96.96629 | 35914 ft | 491 kts | 331° |
| 2026-04-30 01:31 | 10.83207 | 96.93537 | 35914 ft | 491 kts | 331° |
| 2026-04-30 01:31 | 10.89325 | 96.90442 | 35915 ft | 491 kts | 331° |
| 2026-04-30 01:32 | 10.95438 | 96.87348 | 35917 ft | 491 kts | 331° |
| 2026-04-30 01:32 | 11.01556 | 96.84250 | 35916 ft | 491 kts | 331° |
| 2026-04-30 01:33 | 11.07676 | 96.81150 | 35914 ft | 491 kts | 331° |
| 2026-04-30 01:33 | 11.13793 | 96.78050 | 35914 ft | 491 kts | 331° |
| 2026-04-30 01:34 | 11.19869 | 96.74969 | 35913 ft | 491 kts | 331° |
| 2026-04-30 01:34 | 11.25986 | 96.71866 | 35915 ft | 491 kts | 331° |
| 2026-04-30 01:35 | 11.32111 | 96.68757 | 35914 ft | 491 kts | 331° |
| 2026-04-30 01:35 | 11.38226 | 96.65652 | 35914 ft | 491 kts | 331° |
| 2026-04-30 01:36 | 11.44338 | 96.62547 | 35918 ft | 491 kts | 331° |
| 2026-04-30 01:36 | 11.50449 | 96.59441 | 35916 ft | 491 kts | 330° |
| 2026-04-30 01:37 | 11.56564 | 96.56331 | 35914 ft | 491 kts | 330° |
| 2026-04-30 01:37 | 11.62676 | 96.53221 | 35916 ft | 491 kts | 330° |
| 2026-04-30 01:38 | 11.68790 | 96.50109 | 35916 ft | 491 kts | 330° |
| 2026-04-30 01:38 | 11.74900 | 96.46998 | 35917 ft | 491 kts | 330° |
| 2026-04-30 01:39 | 11.80975 | 96.43902 | 35920 ft | 491 kts | 330° |
| 2026-04-30 01:39 | 11.87078 | 96.40775 | 35919 ft | 490 kts | 329° |
| 2026-04-30 01:40 | 11.92546 | 96.36731 | 35921 ft | 484 kts | 314° |
| 2026-04-30 01:40 | 11.96566 | 96.32767 | 35916 ft | 483 kts | 313° |